sensor_id;sensor_type;location;lat;lon;timestamp;temperature;humidity
49124;DHT22;48506;48.202;16.274;2022-07-05T00:00:46;21.40;99.60
49124;DHT22;48506;48.202;16.274;2022-07-05T00:03:12;21.40;99.70
49124;DHT22;48506;48.202;16.274;2022-07-05T00:05:39;21.40;99.90
49124;DHT22;48506;48.202;16.274;2022-07-05T00:08:06;21.40;99.90
49124;DHT22;48506;48.202;16.274;2022-07-05T00:10:33;21.30;99.90
49124;DHT22;48506;48.202;16.274;2022-07-05T00:12:59;21.30;99.90
49124;DHT22;48506;48.202;16.274;2022-07-05T00:15:25;21.20;99.90
49124;DHT22;48506;48.202;16.274;2022-07-05T00:17:51;21.20;99.80
49124;DHT22;48506;48.202;16.274;2022-07-05T00:20:17;21.20;99.80
49124;DHT22;48506;48.202;16.274;2022-07-05T00:22:43;21.10;99.90
49124;DHT22;48506;48.202;16.274;2022-07-05T00:25:09;21.10;99.90
49124;DHT22;48506;48.202;16.274;2022-07-05T00:27:36;21.10;99.90
49124;DHT22;48506;48.202;16.274;2022-07-05T00:30:03;21.00;99.90
49124;DHT22;48506;48.202;16.274;2022-07-05T00:32:29;21.00;99.90
49124;DHT22;48506;48.202;16.274;2022-07-05T00:34:55;21.00;99.90
49124;DHT22;48506;48.202;16.274;2022-07-05T00:37:21;20.90;99.90
49124;DHT22;48506;48.202;16.274;2022-07-05T00:39:47;20.90;99.90
49124;DHT22;48506;48.202;16.274;2022-07-05T00:42:13;20.90;99.90
49124;DHT22;48506;48.202;16.274;2022-07-05T00:44:39;20.90;99.90
49124;DHT22;48506;48.202;16.274;2022-07-05T00:47:09;20.80;99.90
49124;DHT22;48506;48.202;16.274;2022-07-05T00:49:36;20.70;99.90
49124;DHT22;48506;48.202;16.274;2022-07-05T00:52:04;20.70;99.90
49124;DHT22;48506;48.202;16.274;2022-07-05T00:54:34;20.60;99.90
49124;DHT22;48506;48.202;16.274;2022-07-05T00:57:02;20.60;99.90
49124;DHT22;48506;48.202;16.274;2022-07-05T00:59:29;20.50;99.90
49124;DHT22;48506;48.202;16.274;2022-07-05T01:01:55;20.50;99.90
49124;DHT22;48506;48.202;16.274;2022-07-05T01:04:22;20.40;99.90
49124;DHT22;48506;48.202;16.274;2022-07-05T01:06:49;20.40;99.90
49124;DHT22;48506;48.202;16.274;2022-07-05T01:09:16;20.40;99.90
49124;DHT22;48506;48.202;16.274;2022-07-05T01:11:44;20.30;99.90
49124;DHT22;48506;48.202;16.274;2022-07-05T01:14:18;20.30;99.90
49124;DHT22;48506;48.202;16.274;2022-07-05T01:16:45;20.20;99.90
49124;DHT22;48506;48.202;16.274;2022-07-05T01:19:12;20.20;99.90
49124;DHT22;48506;48.202;16.274;2022-07-05T01:21:43;20.10;99.90
49124;DHT22;48506;48.202;16.274;2022-07-05T01:24:14;20.10;99.90
49124;DHT22;48506;48.202;16.274;2022-07-05T01:26:43;20.20;99.90
49124;DHT22;48506;48.202;16.274;2022-07-05T01:29:09;20.20;99.90
49124;DHT22;48506;48.202;16.274;2022-07-05T01:31:39;20.30;99.90
49124;DHT22;48506;48.202;16.274;2022-07-05T01:34:06;20.20;99.90
49124;DHT22;48506;48.202;16.274;2022-07-05T01:36:33;20.20;99.90
49124;DHT22;48506;48.202;16.274;2022-07-05T01:39:02;20.20;99.90
49124;DHT22;48506;48.202;16.274;2022-07-05T01:41:28;20.20;99.90
49124;DHT22;48506;48.202;16.274;2022-07-05T01:43:54;20.20;99.90
49124;DHT22;48506;48.202;16.274;2022-07-05T01:46:22;20.10;99.90
49124;DHT22;48506;48.202;16.274;2022-07-05T01:48:51;20.10;99.90
49124;DHT22;48506;48.202;16.274;2022-07-05T01:51:32;20.10;99.90
49124;DHT22;48506;48.202;16.274;2022-07-05T01:53:59;20.10;99.90
49124;DHT22;48506;48.202;16.274;2022-07-05T01:56:25;20.10;99.90
49124;DHT22;48506;48.202;16.274;2022-07-05T01:58:52;20.10;99.90
49124;DHT22;48506;48.202;16.274;2022-07-05T02:01:36;20.10;99.90
49124;DHT22;48506;48.202;16.274;2022-07-05T02:06:32;20.10;99.90
49124;DHT22;48506;48.202;16.274;2022-07-05T02:08:59;20.10;99.90
49124;DHT22;48506;48.202;16.274;2022-07-05T02:11:26;20.10;99.90
49124;DHT22;48506;48.202;16.274;2022-07-05T02:13:52;20.10;99.90
49124;DHT22;48506;48.202;16.274;2022-07-05T02:16:22;20.10;99.90
49124;DHT22;48506;48.202;16.274;2022-07-05T02:18:51;20.10;99.90
49124;DHT22;48506;48.202;16.274;2022-07-05T02:21:17;20.10;99.90
49124;DHT22;48506;48.202;16.274;2022-07-05T02:23:43;20.10;99.90
49124;DHT22;48506;48.202;16.274;2022-07-05T02:26:09;20.10;99.90
49124;DHT22;48506;48.202;16.274;2022-07-05T02:28:35;20.10;99.90
49124;DHT22;48506;48.202;16.274;2022-07-05T02:31:01;20.10;99.90
49124;DHT22;48506;48.202;16.274;2022-07-05T02:33:27;20.10;99.90
49124;DHT22;48506;48.202;16.274;2022-07-05T02:35:53;20.10;99.90
49124;DHT22;48506;48.202;16.274;2022-07-05T02:38:18;20.20;99.90
49124;DHT22;48506;48.202;16.274;2022-07-05T02:40:44;20.20;99.90
49124;DHT22;48506;48.202;16.274;2022-07-05T02:43:10;20.20;99.90
49124;DHT22;48506;48.202;16.274;2022-07-05T02:45:36;20.20;99.90
49124;DHT22;48506;48.202;16.274;2022-07-05T02:48:02;20.20;99.90
49124;DHT22;48506;48.202;16.274;2022-07-05T02:50:29;20.20;99.90
49124;DHT22;48506;48.202;16.274;2022-07-05T02:52:55;20.30;99.90
49124;DHT22;48506;48.202;16.274;2022-07-05T02:55:20;20.30;99.90
49124;DHT22;48506;48.202;16.274;2022-07-05T02:57:46;20.30;99.90
49124;DHT22;48506;48.202;16.274;2022-07-05T03:00:13;20.30;99.90
49124;DHT22;48506;48.202;16.274;2022-07-05T03:02:39;20.30;99.90
49124;DHT22;48506;48.202;16.274;2022-07-05T03:05:05;20.30;99.90
49124;DHT22;48506;48.202;16.274;2022-07-05T03:07:31;20.30;99.90
49124;DHT22;48506;48.202;16.274;2022-07-05T03:09:57;20.40;99.90
49124;DHT22;48506;48.202;16.274;2022-07-05T03:12:23;20.30;99.90
49124;DHT22;48506;48.202;16.274;2022-07-05T03:14:49;20.30;99.90
49124;DHT22;48506;48.202;16.274;2022-07-05T03:17:15;20.40;99.90
49124;DHT22;48506;48.202;16.274;2022-07-05T03:19:41;20.30;99.90
49124;DHT22;48506;48.202;16.274;2022-07-05T03:22:06;20.40;99.90
49124;DHT22;48506;48.202;16.274;2022-07-05T03:24:32;20.40;99.90
49124;DHT22;48506;48.202;16.274;2022-07-05T03:26:58;20.50;99.90
49124;DHT22;48506;48.202;16.274;2022-07-05T03:29:24;20.60;99.90
49124;DHT22;48506;48.202;16.274;2022-07-05T03:31:50;20.60;99.90
49124;DHT22;48506;48.202;16.274;2022-07-05T03:34:16;20.60;99.90
49124;DHT22;48506;48.202;16.274;2022-07-05T03:36:42;20.60;99.90
49124;DHT22;48506;48.202;16.274;2022-07-05T03:39:07;20.70;99.90
49124;DHT22;48506;48.202;16.274;2022-07-05T03:41:33;20.70;99.90
49124;DHT22;48506;48.202;16.274;2022-07-05T03:43:59;20.70;99.90
49124;DHT22;48506;48.202;16.274;2022-07-05T03:46:25;20.70;99.90
49124;DHT22;48506;48.202;16.274;2022-07-05T03:48:51;20.70;99.90
49124;DHT22;48506;48.202;16.274;2022-07-05T03:51:18;20.70;99.90
49124;DHT22;48506;48.202;16.274;2022-07-05T03:53:44;20.80;99.90
49124;DHT22;48506;48.202;16.274;2022-07-05T03:56:09;20.80;99.90
49124;DHT22;48506;48.202;16.274;2022-07-05T03:58:35;20.80;99.90
49124;DHT22;48506;48.202;16.274;2022-07-05T04:01:02;20.80;99.90
49124;DHT22;48506;48.202;16.274;2022-07-05T04:03:28;20.80;99.90
49124;DHT22;48506;48.202;16.274;2022-07-05T04:05:54;20.90;99.90
49124;DHT22;48506;48.202;16.274;2022-07-05T04:08:20;20.90;99.90
49124;DHT22;48506;48.202;16.274;2022-07-05T04:10:48;20.90;99.90
49124;DHT22;48506;48.202;16.274;2022-07-05T04:13:14;20.90;99.90
49124;DHT22;48506;48.202;16.274;2022-07-05T04:15:40;20.90;99.90
49124;DHT22;48506;48.202;16.274;2022-07-05T04:18:06;20.90;99.90
49124;DHT22;48506;48.202;16.274;2022-07-05T04:20:32;20.90;99.90
49124;DHT22;48506;48.202;16.274;2022-07-05T04:22:57;21.00;99.90
49124;DHT22;48506;48.202;16.274;2022-07-05T04:25:24;21.00;99.80
49124;DHT22;48506;48.202;16.274;2022-07-05T04:27:52;21.00;99.90
49124;DHT22;48506;48.202;16.274;2022-07-05T04:30:21;21.00;99.80
49124;DHT22;48506;48.202;16.274;2022-07-05T04:32:48;21.00;99.80
49124;DHT22;48506;48.202;16.274;2022-07-05T04:35:14;20.90;99.60
49124;DHT22;48506;48.202;16.274;2022-07-05T04:37:42;21.00;99.80
49124;DHT22;48506;48.202;16.274;2022-07-05T04:40:10;21.00;99.70
49124;DHT22;48506;48.202;16.274;2022-07-05T04:42:36;21.00;99.50
49124;DHT22;48506;48.202;16.274;2022-07-05T04:45:04;20.90;99.60
49124;DHT22;48506;48.202;16.274;2022-07-05T04:47:31;21.00;99.60
49124;DHT22;48506;48.202;16.274;2022-07-05T04:49:57;21.00;99.50
49124;DHT22;48506;48.202;16.274;2022-07-05T04:52:24;21.00;99.60
49124;DHT22;48506;48.202;16.274;2022-07-05T04:54:51;21.00;99.30
49124;DHT22;48506;48.202;16.274;2022-07-05T04:57:17;21.00;99.30
49124;DHT22;48506;48.202;16.274;2022-07-05T04:59:43;21.00;99.20
49124;DHT22;48506;48.202;16.274;2022-07-05T05:02:09;21.00;99.20
49124;DHT22;48506;48.202;16.274;2022-07-05T05:04:35;21.00;98.90
49124;DHT22;48506;48.202;16.274;2022-07-05T05:07:01;21.00;98.90
49124;DHT22;48506;48.202;16.274;2022-07-05T05:09:28;21.10;99.00
49124;DHT22;48506;48.202;16.274;2022-07-05T05:11:55;21.10;99.10
49124;DHT22;48506;48.202;16.274;2022-07-05T05:14:21;21.00;98.90
49124;DHT22;48506;48.202;16.274;2022-07-05T05:16:47;21.00;99.00
49124;DHT22;48506;48.202;16.274;2022-07-05T05:19:13;21.10;98.80
49124;DHT22;48506;48.202;16.274;2022-07-05T05:21:40;21.10;98.90
49124;DHT22;48506;48.202;16.274;2022-07-05T05:24:06;21.10;98.70
49124;DHT22;48506;48.202;16.274;2022-07-05T05:26:32;21.10;98.80
49124;DHT22;48506;48.202;16.274;2022-07-05T05:28:58;21.20;98.70
49124;DHT22;48506;48.202;16.274;2022-07-05T05:31:25;21.20;98.80
49124;DHT22;48506;48.202;16.274;2022-07-05T05:33:51;21.20;98.80
49124;DHT22;48506;48.202;16.274;2022-07-05T05:36:17;21.10;98.50
49124;DHT22;48506;48.202;16.274;2022-07-05T05:38:44;21.10;98.80
49124;DHT22;48506;48.202;16.274;2022-07-05T05:41:11;21.00;98.90
49124;DHT22;48506;48.202;16.274;2022-07-05T05:43:38;21.10;98.90
49124;DHT22;48506;48.202;16.274;2022-07-05T05:46:04;21.10;99.00
49124;DHT22;48506;48.202;16.274;2022-07-05T05:48:30;21.10;99.00
49124;DHT22;48506;48.202;16.274;2022-07-05T05:50:56;21.20;98.90
49124;DHT22;48506;48.202;16.274;2022-07-05T05:53:23;21.20;98.90
49124;DHT22;48506;48.202;16.274;2022-07-05T05:55:49;21.20;98.90
49124;DHT22;48506;48.202;16.274;2022-07-05T05:58:17;21.30;98.70
49124;DHT22;48506;48.202;16.274;2022-07-05T06:00:44;21.30;98.60
49124;DHT22;48506;48.202;16.274;2022-07-05T06:03:14;21.30;98.60
49124;DHT22;48506;48.202;16.274;2022-07-05T06:05:40;21.30;98.50
49124;DHT22;48506;48.202;16.274;2022-07-05T06:08:07;21.40;98.50
49124;DHT22;48506;48.202;16.274;2022-07-05T06:10:34;21.40;98.50
49124;DHT22;48506;48.202;16.274;2022-07-05T06:13:03;21.40;98.20
49124;DHT22;48506;48.202;16.274;2022-07-05T06:15:29;21.30;98.30
49124;DHT22;48506;48.202;16.274;2022-07-05T06:17:57;21.40;98.40
49124;DHT22;48506;48.202;16.274;2022-07-05T06:20:26;21.40;98.30
49124;DHT22;48506;48.202;16.274;2022-07-05T06:22:53;21.40;98.10
49124;DHT22;48506;48.202;16.274;2022-07-05T06:25:19;21.40;98.20
49124;DHT22;48506;48.202;16.274;2022-07-05T06:27:49;21.40;98.30
49124;DHT22;48506;48.202;16.274;2022-07-05T06:30:19;21.50;98.10
49124;DHT22;48506;48.202;16.274;2022-07-05T06:32:47;21.50;97.90
49124;DHT22;48506;48.202;16.274;2022-07-05T06:35:14;21.50;97.80
49124;DHT22;48506;48.202;16.274;2022-07-05T06:37:44;21.50;97.90
49124;DHT22;48506;48.202;16.274;2022-07-05T06:40:13;21.50;97.80
49124;DHT22;48506;48.202;16.274;2022-07-05T06:42:40;21.50;97.60
49124;DHT22;48506;48.202;16.274;2022-07-05T06:45:06;21.50;97.80
49124;DHT22;48506;48.202;16.274;2022-07-05T06:47:33;21.50;97.70
49124;DHT22;48506;48.202;16.274;2022-07-05T06:50:01;21.50;97.70
49124;DHT22;48506;48.202;16.274;2022-07-05T06:52:31;21.50;97.50
49124;DHT22;48506;48.202;16.274;2022-07-05T06:54:59;21.60;97.70
49124;DHT22;48506;48.202;16.274;2022-07-05T06:57:25;21.60;97.30
49124;DHT22;48506;48.202;16.274;2022-07-05T06:59:52;21.60;97.40
49124;DHT22;48506;48.202;16.274;2022-07-05T07:02:19;21.60;97.50
49124;DHT22;48506;48.202;16.274;2022-07-05T07:04:47;21.70;97.40
49124;DHT22;48506;48.202;16.274;2022-07-05T07:07:13;21.70;97.30
49124;DHT22;48506;48.202;16.274;2022-07-05T07:10:02;21.70;97.20
49124;DHT22;48506;48.202;16.274;2022-07-05T07:12:30;21.80;97.30
49124;DHT22;48506;48.202;16.274;2022-07-05T07:14:56;21.80;97.00
49124;DHT22;48506;48.202;16.274;2022-07-05T07:17:24;21.90;97.00
49124;DHT22;48506;48.202;16.274;2022-07-05T07:19:51;21.90;96.90
49124;DHT22;48506;48.202;16.274;2022-07-05T07:22:17;22.00;97.00
49124;DHT22;48506;48.202;16.274;2022-07-05T07:24:43;22.00;96.80
49124;DHT22;48506;48.202;16.274;2022-07-05T07:27:10;22.10;96.90
49124;DHT22;48506;48.202;16.274;2022-07-05T07:29:38;22.10;96.90
49124;DHT22;48506;48.202;16.274;2022-07-05T07:32:07;22.10;96.60
49124;DHT22;48506;48.202;16.274;2022-07-05T07:34:33;22.20;96.50
49124;DHT22;48506;48.202;16.274;2022-07-05T07:37:00;22.20;96.60
49124;DHT22;48506;48.202;16.274;2022-07-05T07:39:27;22.20;96.60
49124;DHT22;48506;48.202;16.274;2022-07-05T07:41:53;22.30;96.70
49124;DHT22;48506;48.202;16.274;2022-07-05T07:44:19;22.40;96.60
49124;DHT22;48506;48.202;16.274;2022-07-05T07:46:46;22.30;96.20
49124;DHT22;48506;48.202;16.274;2022-07-05T07:49:13;22.30;96.30
49124;DHT22;48506;48.202;16.274;2022-07-05T07:51:40;22.30;96.20
49124;DHT22;48506;48.202;16.274;2022-07-05T07:54:06;22.30;96.00
49124;DHT22;48506;48.202;16.274;2022-07-05T07:56:33;22.30;96.10
49124;DHT22;48506;48.202;16.274;2022-07-05T07:58:59;22.30;95.90
49124;DHT22;48506;48.202;16.274;2022-07-05T08:01:26;22.30;95.90
49124;DHT22;48506;48.202;16.274;2022-07-05T08:03:52;22.40;96.10
49124;DHT22;48506;48.202;16.274;2022-07-05T08:06:18;22.40;95.90
49124;DHT22;48506;48.202;16.274;2022-07-05T08:08:45;22.40;95.80
49124;DHT22;48506;48.202;16.274;2022-07-05T08:11:14;22.40;96.10
49124;DHT22;48506;48.202;16.274;2022-07-05T08:13:42;22.30;95.90
49124;DHT22;48506;48.202;16.274;2022-07-05T08:16:12;22.30;96.00
49124;DHT22;48506;48.202;16.274;2022-07-05T08:18:37;22.40;96.10
49124;DHT22;48506;48.202;16.274;2022-07-05T08:21:22;22.50;95.90
49124;DHT22;48506;48.202;16.274;2022-07-05T08:24:01;22.40;96.00
49124;DHT22;48506;48.202;16.274;2022-07-05T08:26:28;22.40;95.90
49124;DHT22;48506;48.202;16.274;2022-07-05T08:28:57;22.40;96.10
49124;DHT22;48506;48.202;16.274;2022-07-05T08:31:29;22.40;96.00
49124;DHT22;48506;48.202;16.274;2022-07-05T08:33:56;22.40;95.90
49124;DHT22;48506;48.202;16.274;2022-07-05T08:36:23;22.30;96.10
49124;DHT22;48506;48.202;16.274;2022-07-05T08:38:48;22.20;96.30
49124;DHT22;48506;48.202;16.274;2022-07-05T08:41:18;22.20;96.60
49124;DHT22;48506;48.202;16.274;2022-07-05T08:43:46;22.20;96.50
49124;DHT22;48506;48.202;16.274;2022-07-05T08:46:15;22.10;96.50
49124;DHT22;48506;48.202;16.274;2022-07-05T08:48:42;22.10;96.50
49124;DHT22;48506;48.202;16.274;2022-07-05T08:51:20;22.10;96.70
49124;DHT22;48506;48.202;16.274;2022-07-05T08:53:53;22.00;96.90
49124;DHT22;48506;48.202;16.274;2022-07-05T08:56:22;22.10;97.00
49124;DHT22;48506;48.202;16.274;2022-07-05T08:58:48;22.10;96.80
49124;DHT22;48506;48.202;16.274;2022-07-05T09:01:17;22.10;96.60
49124;DHT22;48506;48.202;16.274;2022-07-05T09:03:48;22.10;96.70
49124;DHT22;48506;48.202;16.274;2022-07-05T09:06:25;22.00;96.70
49124;DHT22;48506;48.202;16.274;2022-07-05T09:08:55;22.00;96.70
49124;DHT22;48506;48.202;16.274;2022-07-05T09:11:29;21.90;96.80
49124;DHT22;48506;48.202;16.274;2022-07-05T09:13:57;21.90;97.00
49124;DHT22;48506;48.202;16.274;2022-07-05T09:16:24;21.80;97.20
49124;DHT22;48506;48.202;16.274;2022-07-05T09:18:53;21.80;97.40
49124;DHT22;48506;48.202;16.274;2022-07-05T09:21:27;21.80;97.20
49124;DHT22;48506;48.202;16.274;2022-07-05T09:23:58;21.70;97.40
49124;DHT22;48506;48.202;16.274;2022-07-05T09:29:00;21.80;97.50
49124;DHT22;48506;48.202;16.274;2022-07-05T09:34:19;21.80;97.90
49124;DHT22;48506;48.202;16.274;2022-07-05T09:36:58;21.80;97.90
49124;DHT22;48506;48.202;16.274;2022-07-05T09:44:48;21.80;97.80
49124;DHT22;48506;48.202;16.274;2022-07-05T09:47:17;21.80;98.10
49124;DHT22;48506;48.202;16.274;2022-07-05T09:49:48;21.80;98.20
49124;DHT22;48506;48.202;16.274;2022-07-05T09:52:31;21.80;98.20
49124;DHT22;48506;48.202;16.274;2022-07-05T09:55:16;21.80;98.10
49124;DHT22;48506;48.202;16.274;2022-07-05T09:57:46;21.80;98.10
49124;DHT22;48506;48.202;16.274;2022-07-05T10:00:22;21.80;98.40
49124;DHT22;48506;48.202;16.274;2022-07-05T10:02:51;21.70;98.70
49124;DHT22;48506;48.202;16.274;2022-07-05T10:05:20;21.70;99.50
49124;DHT22;48506;48.202;16.274;2022-07-05T10:07:51;21.70;99.90
49124;DHT22;48506;48.202;16.274;2022-07-05T10:10:29;21.70;99.90
49124;DHT22;48506;48.202;16.274;2022-07-05T10:12:59;21.70;99.90
49124;DHT22;48506;48.202;16.274;2022-07-05T10:15:31;21.60;99.90
49124;DHT22;48506;48.202;16.274;2022-07-05T10:20:43;21.40;99.90
49124;DHT22;48506;48.202;16.274;2022-07-05T10:23:14;21.30;99.90
49124;DHT22;48506;48.202;16.274;2022-07-05T10:25:51;21.20;99.90
49124;DHT22;48506;48.202;16.274;2022-07-05T10:28:19;21.20;99.90
49124;DHT22;48506;48.202;16.274;2022-07-05T10:30:50;21.10;99.90
49124;DHT22;48506;48.202;16.274;2022-07-05T10:33:21;21.00;99.90
49124;DHT22;48506;48.202;16.274;2022-07-05T10:35:55;20.90;99.90
49124;DHT22;48506;48.202;16.274;2022-07-05T10:38:23;20.90;99.90
49124;DHT22;48506;48.202;16.274;2022-07-05T10:40:55;20.90;99.90
49124;DHT22;48506;48.202;16.274;2022-07-05T10:43:23;20.90;99.90
49124;DHT22;48506;48.202;16.274;2022-07-05T10:45:51;20.90;99.90
49124;DHT22;48506;48.202;16.274;2022-07-05T10:48:24;20.90;99.90
49124;DHT22;48506;48.202;16.274;2022-07-05T10:50:59;20.80;99.90
49124;DHT22;48506;48.202;16.274;2022-07-05T10:58:43;20.90;99.90
49124;DHT22;48506;48.202;16.274;2022-07-05T11:03:39;21.00;99.90
49124;DHT22;48506;48.202;16.274;2022-07-05T11:06:07;21.00;99.90
49124;DHT22;48506;48.202;16.274;2022-07-05T11:11:37;21.00;99.90
49124;DHT22;48506;48.202;16.274;2022-07-05T11:14:06;21.00;99.90
49124;DHT22;48506;48.202;16.274;2022-07-05T11:20:08;20.90;99.90
49124;DHT22;48506;48.202;16.274;2022-07-05T11:23:19;20.80;99.90
49124;DHT22;48506;48.202;16.274;2022-07-05T11:25:29;20.90;99.90
49124;DHT22;48506;48.202;16.274;2022-07-05T11:28:00;20.80;99.90
49124;DHT22;48506;48.202;16.274;2022-07-05T11:30:28;20.80;99.90
49124;DHT22;48506;48.202;16.274;2022-07-05T11:32:54;20.90;99.90
49124;DHT22;48506;48.202;16.274;2022-07-05T11:35:31;20.90;99.90
49124;DHT22;48506;48.202;16.274;2022-07-05T11:38:06;20.90;99.90
49124;DHT22;48506;48.202;16.274;2022-07-05T11:40:36;21.00;99.90
49124;DHT22;48506;48.202;16.274;2022-07-05T11:43:06;21.10;99.90
49124;DHT22;48506;48.202;16.274;2022-07-05T11:45:35;21.10;99.90
49124;DHT22;48506;48.202;16.274;2022-07-05T11:48:01;21.10;99.90
49124;DHT22;48506;48.202;16.274;2022-07-05T11:50:34;21.10;99.90
49124;DHT22;48506;48.202;16.274;2022-07-05T11:53:01;21.10;99.90
49124;DHT22;48506;48.202;16.274;2022-07-05T11:55:29;21.10;99.90
49124;DHT22;48506;48.202;16.274;2022-07-05T11:57:56;21.10;99.90
49124;DHT22;48506;48.202;16.274;2022-07-05T12:00:33;21.10;99.90
49124;DHT22;48506;48.202;16.274;2022-07-05T12:03:11;21.20;99.90
49124;DHT22;48506;48.202;16.274;2022-07-05T12:05:38;21.20;99.90
49124;DHT22;48506;48.202;16.274;2022-07-05T12:08:06;21.20;99.90
49124;DHT22;48506;48.202;16.274;2022-07-05T12:10:32;21.30;99.90
49124;DHT22;48506;48.202;16.274;2022-07-05T12:13:16;21.30;99.90
49124;DHT22;48506;48.202;16.274;2022-07-05T12:15:44;21.30;99.90
49124;DHT22;48506;48.202;16.274;2022-07-05T12:18:13;21.40;99.90
49124;DHT22;48506;48.202;16.274;2022-07-05T12:20:40;21.40;99.90
49124;DHT22;48506;48.202;16.274;2022-07-05T12:23:06;21.50;99.90
49124;DHT22;48506;48.202;16.274;2022-07-05T12:25:34;21.60;99.90
49124;DHT22;48506;48.202;16.274;2022-07-05T12:28:04;21.70;99.90
49124;DHT22;48506;48.202;16.274;2022-07-05T12:30:35;21.70;99.90
49124;DHT22;48506;48.202;16.274;2022-07-05T12:35:34;21.60;99.90
49124;DHT22;48506;48.202;16.274;2022-07-05T12:38:04;21.50;99.90
49124;DHT22;48506;48.202;16.274;2022-07-05T12:40:31;21.50;99.90
49124;DHT22;48506;48.202;16.274;2022-07-05T12:43:17;21.60;99.90
49124;DHT22;48506;48.202;16.274;2022-07-05T12:46:07;21.60;99.90
49124;DHT22;48506;48.202;16.274;2022-07-05T12:48:38;21.50;99.90
49124;DHT22;48506;48.202;16.274;2022-07-05T12:51:06;21.60;99.90
49124;DHT22;48506;48.202;16.274;2022-07-05T12:53:33;21.60;99.90
49124;DHT22;48506;48.202;16.274;2022-07-05T12:56:23;21.90;99.90
49124;DHT22;48506;48.202;16.274;2022-07-05T12:59:10;22.30;99.90
49124;DHT22;48506;48.202;16.274;2022-07-05T13:01:40;22.70;99.90
49124;DHT22;48506;48.202;16.274;2022-07-05T13:04:12;23.00;99.90
49124;DHT22;48506;48.202;16.274;2022-07-05T13:07:00;23.30;99.90
49124;DHT22;48506;48.202;16.274;2022-07-05T13:12:08;23.50;99.90
49124;DHT22;48506;48.202;16.274;2022-07-05T13:14:37;23.40;99.20
49124;DHT22;48506;48.202;16.274;2022-07-05T13:17:05;23.30;99.60
49124;DHT22;48506;48.202;16.274;2022-07-05T13:19:32;23.20;99.30
49124;DHT22;48506;48.202;16.274;2022-07-05T13:22:00;23.20;99.50
49124;DHT22;48506;48.202;16.274;2022-07-05T13:24:26;23.10;99.80
49124;DHT22;48506;48.202;16.274;2022-07-05T13:26:54;23.20;99.80
49124;DHT22;48506;48.202;16.274;2022-07-05T13:29:20;23.10;98.70
49124;DHT22;48506;48.202;16.274;2022-07-05T13:31:47;23.10;99.00
49124;DHT22;48506;48.202;16.274;2022-07-05T13:34:13;23.10;99.00
49124;DHT22;48506;48.202;16.274;2022-07-05T13:36:40;23.00;98.80
49124;DHT22;48506;48.202;16.274;2022-07-05T13:39:06;23.10;99.30
49124;DHT22;48506;48.202;16.274;2022-07-05T13:41:33;23.10;99.40
49124;DHT22;48506;48.202;16.274;2022-07-05T13:43:59;23.10;99.10
49124;DHT22;48506;48.202;16.274;2022-07-05T13:46:25;23.10;98.90
49124;DHT22;48506;48.202;16.274;2022-07-05T13:48:52;23.10;98.90
49124;DHT22;48506;48.202;16.274;2022-07-05T13:51:18;23.00;99.20
49124;DHT22;48506;48.202;16.274;2022-07-05T13:53:45;22.90;99.00
49124;DHT22;48506;48.202;16.274;2022-07-05T13:56:12;22.90;98.80
49124;DHT22;48506;48.202;16.274;2022-07-05T13:58:38;22.80;99.10
49124;DHT22;48506;48.202;16.274;2022-07-05T14:01:04;22.90;99.50
49124;DHT22;48506;48.202;16.274;2022-07-05T14:03:30;23.00;99.70
49124;DHT22;48506;48.202;16.274;2022-07-05T14:05:57;23.10;99.30
49124;DHT22;48506;48.202;16.274;2022-07-05T14:08:23;23.20;99.10
49124;DHT22;48506;48.202;16.274;2022-07-05T14:10:54;23.20;99.10
49124;DHT22;48506;48.202;16.274;2022-07-05T14:13:21;23.10;98.70
49124;DHT22;48506;48.202;16.274;2022-07-05T14:15:49;23.10;99.00
49124;DHT22;48506;48.202;16.274;2022-07-05T14:18:18;23.20;99.30
49124;DHT22;48506;48.202;16.274;2022-07-05T14:20:46;23.20;98.80
49124;DHT22;48506;48.202;16.274;2022-07-05T14:23:14;23.10;97.90
49124;DHT22;48506;48.202;16.274;2022-07-05T14:25:41;22.90;97.60
49124;DHT22;48506;48.202;16.274;2022-07-05T14:28:09;22.90;97.90
49124;DHT22;48506;48.202;16.274;2022-07-05T14:30:37;22.80;97.80
49124;DHT22;48506;48.202;16.274;2022-07-05T14:33:04;22.80;98.00
49124;DHT22;48506;48.202;16.274;2022-07-05T14:35:32;22.80;97.70
49124;DHT22;48506;48.202;16.274;2022-07-05T14:37:59;22.80;97.80
49124;DHT22;48506;48.202;16.274;2022-07-05T14:40:26;22.80;97.30
49124;DHT22;48506;48.202;16.274;2022-07-05T14:42:54;22.80;97.50
49124;DHT22;48506;48.202;16.274;2022-07-05T14:45:21;22.90;97.50
49124;DHT22;48506;48.202;16.274;2022-07-05T14:47:47;22.90;97.80
49124;DHT22;48506;48.202;16.274;2022-07-05T14:50:15;23.10;97.70
49124;DHT22;48506;48.202;16.274;2022-07-05T14:52:42;23.20;97.00
49124;DHT22;48506;48.202;16.274;2022-07-05T14:55:10;23.40;96.90
49124;DHT22;48506;48.202;16.274;2022-07-05T14:57:37;23.60;97.60
49124;DHT22;48506;48.202;16.274;2022-07-05T15:00:07;23.80;97.30
49124;DHT22;48506;48.202;16.274;2022-07-05T15:02:35;24.00;96.90
49124;DHT22;48506;48.202;16.274;2022-07-05T15:05:03;24.10;96.20
49124;DHT22;48506;48.202;16.274;2022-07-05T15:07:30;24.00;96.00
49124;DHT22;48506;48.202;16.274;2022-07-05T15:09:57;24.00;95.80
49124;DHT22;48506;48.202;16.274;2022-07-05T15:12:23;23.90;95.30
49124;DHT22;48506;48.202;16.274;2022-07-05T15:14:49;23.90;95.60
49124;DHT22;48506;48.202;16.274;2022-07-05T15:17:16;23.80;95.30
49124;DHT22;48506;48.202;16.274;2022-07-05T15:19:42;23.80;95.80
49124;DHT22;48506;48.202;16.274;2022-07-05T15:22:09;23.70;95.70
49124;DHT22;48506;48.202;16.274;2022-07-05T15:24:38;23.60;95.90
49124;DHT22;48506;48.202;16.274;2022-07-05T15:27:05;23.60;95.20
49124;DHT22;48506;48.202;16.274;2022-07-05T15:29:32;23.60;95.30
49124;DHT22;48506;48.202;16.274;2022-07-05T15:32:00;23.80;95.20
49124;DHT22;48506;48.202;16.274;2022-07-05T15:34:26;23.90;95.30
49124;DHT22;48506;48.202;16.274;2022-07-05T15:36:53;24.10;95.40
49124;DHT22;48506;48.202;16.274;2022-07-05T15:39:20;24.20;95.00
49124;DHT22;48506;48.202;16.274;2022-07-05T15:41:48;24.30;94.80
49124;DHT22;48506;48.202;16.274;2022-07-05T15:44:15;24.40;94.30
49124;DHT22;48506;48.202;16.274;2022-07-05T15:46:41;24.40;94.70
49124;DHT22;48506;48.202;16.274;2022-07-05T15:49:25;24.50;94.30
49124;DHT22;48506;48.202;16.274;2022-07-05T15:51:51;24.50;94.40
49124;DHT22;48506;48.202;16.274;2022-07-05T15:54:17;24.60;94.90
49124;DHT22;48506;48.202;16.274;2022-07-05T15:56:44;24.80;94.10